Time;durP1;ratioP1;P1;durP2;ratioP2;P2;SDS_P1;SDS_P2;PMS_P1;PMS_P2;Temp;Humidity;BMP_temperature;BMP_pressure;BME280_temperature;BME280_humidity;BME280_pressure;Samples;Min_cycle;Max_cycle;Signal;HPM_P1;HPM_P2
2022/07/04 00:00:08;;;;;;;6.80;2.78;;;30.70;60.10;;;;;;10899269;32;20023;-69
2022/07/04 00:06:10;;;;;;;7.53;3.10;;;30.60;60.20;;;;;;10905823;32;20031;-69
2022/07/04 00:12:13;;;;;;;3.55;2.37;;;30.60;60.40;;;;;;10906122;32;20023;-69
2022/07/04 00:18:15;;;;;;;4.15;2.47;;;30.60;60.40;;;;;;10893170;32;20019;-69
2022/07/04 00:24:17;;;;;;;4.43;2.60;;;30.60;60.40;;;;;;10905632;32;20031;-69
2022/07/04 00:30:19;;;;;;;4.60;3.00;;;30.40;60.90;;;;;;10905569;32;20016;-69
2022/07/04 00:36:21;;;;;;;5.55;3.97;;;30.40;61.10;;;;;;10905016;32;20027;-69
2022/07/04 00:42:23;;;;;;;4.28;2.42;;;30.20;61.30;;;;;;10904806;32;20045;-69
2022/07/04 00:48:39;;;;;;;4.75;2.65;;;30.20;61.30;;;;;;10904941;32;20336;-69
2022/07/04 00:54:42;;;;;;;3.87;2.40;;;30.20;61.60;;;;;;10905921;32;20065;-70
2022/07/04 01:00:44;;;;;;;2.75;1.98;;;30.00;62.60;;;;;;10904872;32;20023;-69
2022/07/04 01:06:57;;;;;;;3.33;2.42;;;30.00;62.90;;;;;;10905180;32;20082;-69
2022/07/04 01:12:59;;;;;;;3.55;2.20;;;30.10;62.70;;;;;;10906148;32;20031;-69
2022/07/04 01:19:03;;;;;;;3.97;2.62;;;30.00;63.30;;;;;;10903783;32;20027;-69
2022/07/04 01:25:06;;;;;;;7.72;2.70;;;30.00;63.30;;;;;;10904313;32;20077;-69
2022/07/04 01:31:09;;;;;;;3.60;2.50;;;30.00;63.10;;;;;;10903155;32;20023;-69
2022/07/04 01:37:12;;;;;;;3.40;2.08;;;30.00;63.00;;;;;;10903126;32;20414;-69
2022/07/04 01:43:14;;;;;;;5.53;2.35;;;29.90;63.20;;;;;;10903715;32;20027;-69
2022/07/04 01:49:16;;;;;;;3.33;2.00;;;29.90;63.10;;;;;;10902549;32;20051;-69
2022/07/04 01:55:19;;;;;;;2.87;1.85;;;29.80;63.20;;;;;;10902341;32;20023;-69
2022/07/04 02:01:30;;;;;;;6.50;2.55;;;29.80;63.20;;;;;;10902212;32;20192;-70
2022/07/04 02:07:33;;;;;;;4.18;2.10;;;29.80;63.10;;;;;;10902695;32;20034;-69
2022/07/04 02:13:35;;;;;;;3.17;1.98;;;29.70;63.30;;;;;;10901848;32;20050;-69
2022/07/04 02:19:37;;;;;;;3.35;2.20;;;29.80;63.10;;;;;;10901494;32;20053;-69
2022/07/04 02:25:39;;;;;;;2.97;2.55;;;29.70;63.10;;;;;;10901011;32;20027;-69
2022/07/04 02:32:10;;;;;;;3.15;2.33;;;29.70;63.20;;;;;;10901468;32;20061;-69
2022/07/04 02:38:16;;;;;;;3.30;2.17;;;29.70;63.20;;;;;;10901700;32;20054;-69
2022/07/04 02:44:19;;;;;;;3.65;2.60;;;29.70;63.30;;;;;;10901292;32;20062;-69
2022/07/04 02:50:25;;;;;;;4.65;2.62;;;29.60;63.50;;;;;;10900704;32;20015;-69
2022/07/04 02:56:37;;;;;;;3.12;2.25;;;29.50;63.70;;;;;;10900569;32;20438;-69
2022/07/04 03:02:39;;;;;;;4.35;1.80;;;29.40;64.00;;;;;;10900320;32;20400;-69
2022/07/04 03:08:41;;;;;;;3.95;2.08;;;29.40;64.20;;;;;;10900133;32;20054;-70
2022/07/04 03:14:43;;;;;;;6.15;2.40;;;29.40;64.30;;;;;;10900769;32;20024;-69
2022/07/04 03:20:46;;;;;;;2.62;2.12;;;29.40;64.20;;;;;;10900013;32;20027;-69
2022/07/04 03:26:48;;;;;;;2.58;1.80;;;29.40;64.30;;;;;;10903726;32;20038;-69
2022/07/04 03:32:50;;;;;;;8.07;2.25;;;29.30;64.10;;;;;;10899594;32;20344;-69
2022/07/04 03:38:52;;;;;;;6.30;3.05;;;29.20;64.30;;;;;;10904726;32;20023;-69
2022/07/04 03:44:54;;;;;;;2.53;1.62;;;29.20;64.30;;;;;;10907347;32;20023;-69
2022/07/04 03:50:57;;;;;;;3.25;1.87;;;29.20;64.20;;;;;;10906996;32;20085;-69
2022/07/04 03:56:59;;;;;;;5.18;2.58;;;29.10;64.20;;;;;;10907218;32;20031;-69
2022/07/04 04:03:01;;;;;;;4.35;2.97;;;29.00;64.30;;;;;;10910789;32;20027;-76
2022/07/04 04:09:03;;;;;;;2.75;2.03;;;29.10;64.20;;;;;;10910613;32;20061;-76
2022/07/04 04:15:06;;;;;;;4.00;2.78;;;29.10;64.10;;;;;;10910204;32;20023;-76
2022/07/04 04:21:08;;;;;;;3.85;2.72;;;29.00;64.10;;;;;;10909966;32;20053;-76
2022/07/04 04:27:14;;;;;;;3.60;2.28;;;28.90;64.20;;;;;;10918150;27;20027;-76
2022/07/04 04:33:41;;;;;;;4.35;2.50;;;28.80;64.40;;;;;;11023645;32;20334;-75
2022/07/04 04:39:43;;;;;;;2.92;2.12;;;28.70;64.60;;;;;;11023012;32;20049;-76
2022/07/04 04:45:45;;;;;;;3.87;2.47;;;28.70;64.50;;;;;;11022675;32;20330;-75
2022/07/04 04:51:47;;;;;;;5.87;3.10;;;28.60;64.60;;;;;;11021939;32;20076;-76
2022/07/04 04:57:49;;;;;;;5.43;2.65;;;28.70;64.50;;;;;;11022219;32;20374;-76
2022/07/04 05:03:51;;;;;;;3.08;2.37;;;28.60;64.50;;;;;;11021976;32;20018;-75
2022/07/04 05:09:58;;;;;;;6.85;2.47;;;28.60;64.40;;;;;;11021856;32;20015;-75
2022/07/04 05:16:00;;;;;;;5.67;2.07;;;28.70;64.20;;;;;;11021521;32;20034;-76
2022/07/04 05:22:02;;;;;;;5.15;3.42;;;28.70;64.00;;;;;;11021136;32;20052;-76
2022/07/04 05:28:05;;;;;;;11.48;4.37;;;28.70;63.90;;;;;;11021092;32;20026;-75
2022/07/04 05:34:07;;;;;;;6.37;3.33;;;28.70;64.00;;;;;;11020924;32;20471;-75
2022/07/04 05:40:10;;;;;;;6.43;3.60;;;28.80;63.50;;;;;;11020719;32;20057;-75
2022/07/04 05:46:12;;;;;;;7.87;2.53;;;28.80;62.60;;;;;;11020526;32;20342;-74
2022/07/04 05:52:14;;;;;;;3.97;2.90;;;28.80;62.10;;;;;;11020182;32;20318;-74
2022/07/04 05:58:16;;;;;;;4.18;2.70;;;29.00;61.70;;;;;;11006644;32;20029;-74
2022/07/04 06:04:18;;;;;;;4.78;2.75;;;29.30;61.60;;;;;;11019698;32;20026;-74
2022/07/04 06:10:38;;;;;;;2.62;2.05;;;29.50;61.20;;;;;;11019713;32;20027;-74
2022/07/04 06:16:40;;;;;;;4.68;2.47;;;29.80;60.80;;;;;;11005219;32;20061;-74
2022/07/04 06:22:49;;;;;;;2.90;1.85;;;30.00;60.50;;;;;;10996878;32;20030;-73
2022/07/04 06:29:01;;;;;;;5.45;2.37;;;30.20;60.30;;;;;;11010348;32;20457;-73
2022/07/04 06:41:24;;;;;;;4.28;2.00;;;30.50;60.10;;;;;;10980543;32;20015;-74
2022/07/04 06:47:26;;;;;;;6.22;1.67;;;30.70;60.20;;;;;;10982819;32;20026;-73
2022/07/04 06:53:45;;;;;;;3.50;1.42;;;30.80;60.00;;;;;;10979830;32;20054;-74
2022/07/04 06:59:47;;;;;;;2.90;1.92;;;30.90;59.80;;;;;;10966579;32;20023;-73
2022/07/04 07:06:09;;;;;;;4.53;2.00;;;31.00;59.60;;;;;;10980614;32;20104;-73
2022/07/04 07:12:10;;;;;;;3.08;2.10;;;31.20;59.30;;;;;;10966370;32;20061;-73
2022/07/04 07:18:12;;;;;;;3.70;2.12;;;31.30;58.70;;;;;;10980067;32;20026;-73
2022/07/04 07:24:23;;;;;;;2.95;1.75;;;31.40;58.40;;;;;;10979697;32;20391;-73
2022/07/04 07:30:25;;;;;;;3.50;1.60;;;31.50;57.90;;;;;;10979348;32;20027;-73
2022/07/04 07:36:28;;;;;;;4.03;1.00;;;31.60;58.00;;;;;;10979331;32;20058;-73
2022/07/04 07:42:30;;;;;;;2.08;1.37;;;31.80;57.80;;;;;;10979418;32;20346;-75
2022/07/04 07:48:33;;;;;;;2.85;1.52;;;31.90;57.80;;;;;;10979271;32;20034;-73
2022/07/04 07:54:36;;;;;;;3.35;2.10;;;32.10;57.20;;;;;;10979280;32;20011;-74
2022/07/04 08:00:38;;;;;;;5.45;1.80;;;32.10;56.60;;;;;;10979211;32;20080;-73
2022/07/04 08:06:40;;;;;;;3.28;2.25;;;32.30;55.80;;;;;;10978817;32;20018;-73
2022/07/04 08:12:42;;;;;;;8.80;2.20;;;32.40;55.20;;;;;;10965363;32;20351;-73
2022/07/04 08:18:45;;;;;;;4.25;1.73;;;32.50;54.20;;;;;;10978892;32;20019;-73
2022/07/04 08:24:47;;;;;;;2.53;1.35;;;32.60;53.60;;;;;;10982485;32;20023;-69
2022/07/04 08:30:49;;;;;;;2.12;1.52;;;32.80;53.50;;;;;;10985039;32;20421;-69
2022/07/04 08:36:52;;;;;;;2.65;1.70;;;32.90;53.00;;;;;;10980508;32;20038;-70
2022/07/04 08:42:54;;;;;;;3.85;1.75;;;33.00;52.10;;;;;;10980754;32;20035;-69
2022/07/04 08:49:01;;;;;;;2.78;1.65;;;33.10;51.70;;;;;;10966978;32;20030;-69
2022/07/04 09:01:26;;;;;;;3.10;1.58;;;33.40;50.20;;;;;;10983710;32;19925;-68
2022/07/04 09:07:28;;;;;;;5.85;2.05;;;33.50;49.00;;;;;;10983703;32;20073;-69
2022/07/04 09:13:31;;;;;;;1.80;1.45;;;33.70;48.10;;;;;;10984065;32;20019;-69
2022/07/04 09:19:34;;;;;;;2.42;1.33;;;33.90;47.60;;;;;;10983400;32;20011;-69
2022/07/04 09:25:36;;;;;;;1.98;1.23;;;33.90;46.80;;;;;;10982981;32;20383;-68
2022/07/04 09:31:39;;;;;;;2.05;1.55;;;34.10;46.70;;;;;;10969369;32;20070;-69
2022/07/04 09:37:46;;;;;;;5.12;2.10;;;34.30;45.90;;;;;;10981726;32;20295;-69
2022/07/04 09:44:07;;;;;;;2.40;1.92;;;34.50;44.70;;;;;;10982231;32;20050;-69
2022/07/04 09:50:16;;;;;;;10.57;1.42;;;34.60;44.20;;;;;;10982147;32;20058;-68
2022/07/04 09:56:59;;;;;;;3.47;1.45;;;34.60;44.70;;;;;;10981744;32;20085;-68
2022/07/04 10:03:23;;;;;;;5.22;2.15;;;34.80;44.20;;;;;;10964942;32;20022;-69
2022/07/04 10:09:28;;;;;;;2.87;1.60;;;35.00;43.30;;;;;;10981460;32;20026;-69
2022/07/04 10:15:32;;;;;;;1.87;1.43;;;35.10;43.30;;;;;;10967983;32;20019;-67
2022/07/04 10:21:34;;;;;;;2.87;1.48;;;35.20;43.20;;;;;;10981180;32;20014;-68
2022/07/04 10:27:38;;;;;;;3.83;1.45;;;35.40;42.90;;;;;;10967121;32;20398;-69
2022/07/04 10:33:42;;;;;;;2.92;1.58;;;35.30;43.20;;;;;;10980480;32;20034;-70
2022/07/04 10:39:44;;;;;;;3.28;1.80;;;35.00;42.60;;;;;;10976152;32;20023;-69
2022/07/04 10:46:24;;;;;;;2.08;1.65;;;35.10;42.00;;;;;;10966730;32;20088;-70
2022/07/04 10:52:26;;;;;;;2.80;1.77;;;35.30;40.10;;;;;;10778402;33;20051;-69
2022/07/04 10:58:42;;;;;;;2.50;1.60;;;35.30;40.50;;;;;;10789601;33;20067;-68
2022/07/04 11:05:00;;;;;;;3.35;1.90;;;35.50;40.40;;;;;;10789511;33;20333;-68
2022/07/04 11:11:05;;;;;;;3.97;1.40;;;35.40;40.70;;;;;;10789157;33;20166;-69
2022/07/04 11:17:34;;;;;;;4.22;2.15;;;35.40;40.30;;;;;;10776784;33;20163;-69
2022/07/04 11:23:35;;;;;;;3.17;1.75;;;35.80;39.80;;;;;;10803279;32;20053;-69
2022/07/04 11:29:37;;;;;;;5.47;2.00;;;35.40;40.10;;;;;;10554557;32;13438142;-69
2022/07/04 11:35:39;;;;;;;1.42;1.15;;;35.10;40.70;;;;;;10938998;32;20030;-69
2022/07/04 11:48:04;;;;;;;4.57;1.80;;;35.00;40.60;;;;;;10937817;32;20027;-69
2022/07/04 11:54:07;;;;;;;5.65;1.67;;;35.20;40.30;;;;;;10947459;32;20306;-69
2022/07/04 12:00:11;;;;;;;2.53;1.27;;;35.30;39.80;;;;;;11021414;32;20061;-69
2022/07/04 12:06:13;;;;;;;4.05;1.33;;;35.30;39.90;;;;;;11019850;32;20026;-68
2022/07/04 12:12:17;;;;;;;2.97;1.58;;;35.30;39.60;;;;;;11025259;32;20041;-69
2022/07/04 12:18:20;;;;;;;3.17;1.42;;;35.10;40.10;;;;;;11021001;32;20069;-69
2022/07/04 12:24:22;;;;;;;4.72;1.90;;;35.00;39.20;;;;;;11023557;32;20022;-70
2022/07/04 12:30:34;;;;;;;1.40;1.05;;;35.00;39.80;;;;;;11002528;27;20399;-68
2022/07/04 12:36:59;;;;;;;1.83;1.15;;;35.30;40.20;;;;;;10984700;32;20055;-69
2022/07/04 12:43:03;;;;;;;2.85;1.70;;;35.90;39.30;;;;;;10984553;32;20395;-69
2022/07/04 12:49:05;;;;;;;2.95;1.50;;;36.30;38.20;;;;;;10984402;32;20307;-68
2022/07/04 12:55:11;;;;;;;2.15;1.30;;;36.50;38.30;;;;;;10984215;32;20042;-68
2022/07/04 13:01:32;;;;;;;;;;;36.90;38.20;;;;;;10984230;32;20019;-69
2022/07/04 13:07:35;;;;;;;1.83;1.15;;;36.80;38.40;;;;;;10984876;32;19956;-69
2022/07/04 13:13:57;;;;;;;3.53;2.00;;;36.30;39.90;;;;;;10983506;32;20072;-68
2022/07/04 13:20:01;;;;;;;4.87;1.77;;;36.00;40.40;;;;;;10984147;32;20019;-68
2022/07/04 13:26:04;;;;;;;1.98;1.33;;;35.90;41.10;;;;;;10983061;32;20018;-69
2022/07/04 13:32:06;;;;;;;3.78;1.62;;;36.00;42.00;;;;;;10982723;32;20327;-69
2022/07/04 13:38:08;;;;;;;3.33;2.03;;;36.30;41.40;;;;;;10980551;32;20107;-68
2022/07/04 13:44:15;;;;;;;2.60;1.20;;;36.60;40.70;;;;;;10969173;32;20065;-72
2022/07/04 13:50:17;;;;;;;1.87;1.25;;;36.70;41.20;;;;;;10944391;32;20023;-73
2022/07/04 13:56:20;;;;;;;6.00;1.62;;;36.80;41.30;;;;;;10944428;32;20046;-72
2022/07/04 14:02:23;;;;;;;1.50;1.20;;;36.90;43.20;;;;;;10943899;32;20034;-72
2022/07/04 14:08:25;;;;;;;2.15;0.80;;;36.60;43.70;;;;;;10943767;32;20046;-75
2022/07/04 14:14:28;;;;;;;3.42;1.48;;;36.60;44.10;;;;;;10939091;32;20023;-73
2022/07/04 14:20:30;;;;;;;2.40;1.20;;;36.70;43.50;;;;;;10942800;32;20027;-73
2022/07/04 14:26:32;;;;;;;2.78;1.70;;;36.70;44.80;;;;;;10943326;32;20030;-72
2022/07/04 14:32:34;;;;;;;2.87;1.30;;;36.70;44.20;;;;;;10942819;32;20403;-74
2022/07/04 14:38:38;;;;;;;1.90;1.12;;;36.70;42.80;;;;;;10942631;32;20027;-74
2022/07/04 14:44:40;;;;;;;2.05;1.33;;;36.70;44.10;;;;;;10942630;32;20023;-73
2022/07/04 14:50:42;;;;;;;12.73;1.27;;;36.60;44.40;;;;;;10942899;32;20043;-72
2022/07/04 14:56:44;;;;;;;0.80;0.70;;;36.60;43.30;;;;;;10943022;32;20049;-73
2022/07/04 15:02:46;;;;;;;1.27;0.88;;;36.70;42.50;;;;;;10942843;32;20031;-72
2022/07/04 15:08:48;;;;;;;1.00;0.88;;;36.80;41.70;;;;;;10942665;32;20077;-73
2022/07/04 15:14:50;;;;;;;1.52;1.00;;;36.80;41.20;;;;;;10942267;32;20031;-73
2022/07/04 15:27:13;;;;;;;1.30;0.70;;;36.90;40.70;;;;;;10975623;32;20030;-72
2022/07/04 15:33:15;;;;;;;0.77;0.52;;;36.90;41.10;;;;;;10945671;32;20027;-72
2022/07/04 15:39:17;;;;;;;1.30;0.80;;;36.90;40.70;;;;;;10936458;32;20426;-73
2022/07/04 15:45:22;;;;;;;1.50;0.60;;;36.90;40.40;;;;;;10945167;32;20341;-72
2022/07/04 15:51:24;;;;;;;1.12;0.80;;;37.00;40.30;;;;;;10949391;32;20437;-69
2022/07/04 15:57:26;;;;;;;1.23;0.90;;;37.10;40.30;;;;;;10948771;32;20035;-69
2022/07/04 16:03:29;;;;;;;0.90;0.80;;;37.00;40.40;;;;;;10947907;32;20370;-69
2022/07/04 16:09:31;;;;;;;1.80;0.77;;;37.10;40.30;;;;;;10948835;32;20018;-72
2022/07/04 16:15:33;;;;;;;2.78;1.12;;;37.10;41.00;;;;;;10947996;32;20030;-73
2022/07/04 16:21:36;;;;;;;1.73;0.73;;;37.10;40.30;;;;;;10930481;32;20027;-73
2022/07/04 16:27:39;;;;;;;2.20;0.65;;;37.10;40.30;;;;;;10947912;32;20434;-73
2022/07/04 16:33:41;;;;;;;0.93;0.62;;;37.10;40.20;;;;;;10947756;32;20383;-73
2022/07/04 16:39:43;;;;;;;1.27;0.70;;;37.20;39.80;;;;;;10947647;32;20030;-73
2022/07/04 16:45:45;;;;;;;0.90;0.60;;;37.20;39.50;;;;;;10946633;32;20031;-73
2022/07/04 16:51:47;;;;;;;1.45;0.85;;;37.20;39.50;;;;;;10946874;32;20296;-69
2022/07/04 16:57:50;;;;;;;1.00;0.68;;;37.00;40.10;;;;;;10954897;32;20410;-70
2022/07/04 17:03:52;;;;;;;1.05;0.57;;;36.60;40.90;;;;;;10953799;32;20031;-70
2022/07/04 17:09:54;;;;;;;0.98;0.77;;;36.30;41.30;;;;;;10946197;32;20027;-70
2022/07/04 17:15:56;;;;;;;1.65;0.52;;;36.10;41.50;;;;;;10944816;32;20042;-70
2022/07/04 17:21:58;;;;;;;1.75;0.65;;;36.10;42.10;;;;;;10941374;32;20193;-70
2022/07/04 17:28:01;;;;;;;2.53;0.50;;;36.00;42.30;;;;;;10945348;32;20027;-70
2022/07/04 17:34:03;;;;;;;1.85;0.90;;;35.90;42.10;;;;;;10945287;32;20030;-70
2022/07/04 17:40:06;;;;;;;2.80;1.00;;;35.80;42.20;;;;;;10945096;32;20027;-70
2022/07/04 17:46:09;;;;;;;0.88;0.70;;;35.60;42.50;;;;;;10945098;32;20031;-70
2022/07/04 17:52:43;;;;;;;1.80;0.88;;;35.40;43.20;;;;;;10944772;32;20042;-70
2022/07/04 17:58:49;;;;;;;4.03;0.73;;;35.30;43.60;;;;;;10939352;32;20039;-70
2022/07/04 18:04:51;;;;;;;0.87;0.60;;;35.10;43.80;;;;;;10944133;32;20407;-70
2022/07/04 18:10:53;;;;;;;0.80;0.57;;;35.00;43.90;;;;;;10943987;32;20019;-70
2022/07/04 18:16:55;;;;;;;2.37;0.50;;;34.80;44.20;;;;;;10943659;32;20355;-70
2022/07/04 18:22:57;;;;;;;7.87;0.98;;;34.80;44.30;;;;;;10931310;32;20023;-70
2022/07/04 18:28:59;;;;;;;1.33;0.60;;;34.50;44.50;;;;;;10943272;32;20027;-70
2022/07/04 18:35:04;;;;;;;0.88;0.45;;;34.40;45.00;;;;;;10940740;32;20057;-70
2022/07/04 18:47:37;;;;;;;73.87;6.55;;;34.00;42.70;;;;;;10943972;32;20023;-69
2022/07/04 18:53:39;;;;;;;26.35;4.65;;;33.00;40.30;;;;;;10942070;32;20073;-68
2022/07/04 18:59:42;;;;;;;26.25;4.55;;;32.20;40.30;;;;;;10942371;32;20042;-67
2022/07/04 19:05:44;;;;;;;11.88;2.05;;;31.70;40.70;;;;;;10924425;32;20023;-68
2022/07/04 19:11:46;;;;;;;7.35;2.17;;;31.40;41.20;;;;;;10942014;32;20015;-68
2022/07/04 19:18:00;;;;;;;13.77;1.90;;;31.10;41.90;;;;;;10941577;32;20085;-67
2022/07/04 19:24:03;;;;;;;11.23;1.95;;;30.80;42.30;;;;;;10941910;32;20015;-69
2022/07/04 19:30:07;;;;;;;11.35;1.92;;;30.70;42.30;;;;;;10941618;32;20047;-69
2022/07/04 19:36:10;;;;;;;2.08;1.10;;;30.50;42.50;;;;;;10941659;32;20077;-73
2022/07/04 19:42:17;;;;;;;4.35;1.37;;;30.50;42.40;;;;;;10928268;32;20023;-72
2022/07/04 19:48:19;;;;;;;;;;;30.50;42.70;;;;;;10928605;32;20042;-73
2022/07/04 19:54:21;;;;;;;2.75;1.33;;;30.50;43.20;;;;;;10941241;32;19941;-73
2022/07/04 20:00:24;;;;;;;5.07;0.93;;;30.60;42.80;;;;;;10941404;32;20300;-73
2022/07/04 20:06:26;;;;;;;1.83;0.82;;;30.70;43.80;;;;;;10941318;32;20421;-73
2022/07/04 20:13:11;;;;;;;1.10;0.22;;;30.80;44.70;;;;;;10927704;32;20019;-72
2022/07/04 20:19:51;;;;;;;7.07;0.90;;;30.90;44.70;;;;;;10866012;32;20062;-73
2022/07/04 20:25:53;;;;;;;5.40;0.90;;;30.70;44.70;;;;;;10868419;32;20055;-71
2022/07/04 20:32:06;;;;;;;1.20;0.70;;;30.60;45.40;;;;;;10929376;27;20058;-72
2022/07/04 20:38:08;;;;;;;1.45;0.65;;;30.50;45.20;;;;;;10944116;32;20317;-72
2022/07/04 20:44:18;;;;;;;2.00;0.70;;;30.60;45.70;;;;;;10931498;32;20027;-73
2022/07/04 20:50:20;;;;;;;3.87;0.40;;;30.70;45.90;;;;;;10943691;32;20391;-74
2022/07/04 20:56:22;;;;;;;2.28;1.10;;;30.60;46.30;;;;;;10975688;32;20026;-74
2022/07/04 21:02:26;;;;;;;2.05;0.50;;;30.60;47.20;;;;;;10983905;32;20022;-74
2022/07/04 21:08:29;;;;;;;2.10;0.65;;;30.70;47.00;;;;;;10983824;32;20023;-72
2022/07/04 21:14:31;;;;;;;1.23;0.50;;;30.70;47.40;;;;;;10983468;32;20037;-72
2022/07/04 21:20:34;;;;;;;1.00;0.55;;;30.80;47.50;;;;;;10983313;32;20049;-73
2022/07/04 21:26:37;;;;;;;1.20;0.30;;;30.80;48.20;;;;;;10983289;32;20014;-74
2022/07/04 21:32:40;;;;;;;0.32;0.30;;;30.90;49.00;;;;;;10982696;32;20458;-75
2022/07/04 21:38:45;;;;;;;0.70;0.52;;;30.90;49.30;;;;;;10982534;32;20053;-74
2022/07/04 21:44:47;;;;;;;2.45;0.93;;;30.90;49.60;;;;;;10982514;32;20417;-75
2022/07/04 21:51:02;;;;;;;0.85;0.32;;;30.80;50.30;;;;;;10967976;32;20075;-76
2022/07/04 21:57:04;;;;;;;1.15;0.40;;;30.80;51.00;;;;;;10981956;32;20023;-75
2022/07/04 22:03:07;;;;;;;1.15;0.47;;;30.90;51.40;;;;;;10981811;32;20015;-68
2022/07/04 22:09:09;;;;;;;6.60;1.35;;;30.90;52.60;;;;;;10981515;32;20369;-68
2022/07/04 22:15:14;;;;;;;1.90;0.90;;;30.90;52.90;;;;;;10976963;32;20006;-68
2022/07/04 22:21:16;;;;;;;3.05;0.60;;;30.70;54.10;;;;;;10979554;32;20045;-68
2022/07/04 22:27:19;;;;;;;0.82;0.55;;;30.60;55.30;;;;;;10976706;32;20019;-69
2022/07/04 22:33:21;;;;;;;2.20;0.95;;;30.50;55.70;;;;;;10980686;32;20014;-69
2022/07/04 22:39:23;;;;;;;2.85;0.75;;;30.40;57.10;;;;;;10977851;32;20053;-69
2022/07/04 22:45:26;;;;;;;3.83;0.55;;;30.50;57.20;;;;;;10979950;32;20040;-68
2022/07/04 22:51:43;;;;;;;3.70;1.67;;;30.60;57.30;;;;;;10976803;32;20023;-67
2022/07/04 22:58:18;;;;;;;2.75;1.25;;;30.60;55.70;;;;;;10977766;32;20063;-68
2022/07/04 23:04:20;;;;;;;4.12;1.40;;;30.10;53.10;;;;;;10979859;32;20436;-68
2022/07/04 23:10:22;;;;;;;1.10;0.98;;;30.00;54.20;;;;;;10979721;32;20015;-68
2022/07/04 23:16:33;;;;;;;1.92;1.25;;;29.90;53.30;;;;;;10979410;32;20425;-67
2022/07/04 23:22:36;;;;;;;5.07;1.20;;;29.60;53.40;;;;;;10979015;32;20026;-67
2022/07/04 23:28:38;;;;;;;1.40;0.98;;;29.40;53.40;;;;;;10965830;32;20049;-67
2022/07/04 23:34:41;;;;;;;1.58;0.80;;;29.20;53.60;;;;;;10979021;32;20027;-72
2022/07/04 23:41:09;;;;;;;3.92;1.17;;;29.10;54.00;;;;;;10979148;32;20392;-72
2022/07/04 23:47:11;;;;;;;1.92;1.25;;;29.00;54.00;;;;;;10978938;32;20010;-73
2022/07/04 23:53:13;;;;;;;1.05;0.80;;;29.10;54.70;;;;;;10979905;32;20019;-73
2022/07/04 23:59:15;;;;;;;0.98;0.75;;;29.10;54.80;;;;;;10986158;32;20031;-72
